Time;durP1;ratioP1;P1;durP2;ratioP2;P2;SDS_P1;SDS_P2;PMS_P1;PMS_P2;Temp;Humidity;BMP_temperature;BMP_pressure;BME280_temperature;BME280_humidity;BME280_pressure;Samples;Min_cycle;Max_cycle;Signal;HPM_P1;HPM_P2
2022/05/11 00:02:30;;;;;;;4.45;3.95;;;;;;;;;;6215018;23;20402;-93
2022/05/11 00:04:57;;;;;;;5.85;4.60;;;;;;;;;;6217918;23;19997;-93
2022/05/11 00:07:23;;;;;;;5.93;4.40;;;;;;;;;;6193439;23;20452;-92
2022/05/11 00:09:49;;;;;;;6.78;4.53;;;;;;;;;;6211841;23;20013;-93
2022/05/11 00:12:15;;;;;;;6.38;4.28;;;;;;;;;;6222147;23;20022;-91
2022/05/11 00:14:41;;;;;;;5.43;4.57;;;;;;;;;;6211470;23;20005;-91
2022/05/11 00:17:07;;;;;;;5.50;4.25;;;;;;;;;;6187496;23;20100;-91
2022/05/11 00:19:33;;;;;;;6.05;4.30;;;;;;;;;;6229475;23;20036;-93
2022/05/11 00:21:59;;;;;;;7.40;4.82;;;;;;;;;;6226757;23;20005;-93
2022/05/11 00:24:26;;;;;;;9.25;4.93;;;;;;;;;;6223073;23;20027;-92
2022/05/11 00:26:52;;;;;;;6.55;4.63;;;;;;;;;;6216503;23;20006;-93
2022/05/11 00:29:26;;;;;;;7.93;4.63;;;;;;;;;;6210838;23;20439;-92
2022/05/11 00:32:04;;;;;;;7.40;4.97;;;;;;;;;;6210557;23;20087;-92
2022/05/11 00:34:40;;;;;;;;;;;;;;;;;;;;;
2022/05/11 00:37:06;;;;;;;6.82;4.78;;;;;;;;;;6186127;23;20052;-93
2022/05/11 00:39:36;;;;;;;6.55;5.05;;;;;;;;;;6212485;23;20040;-92
2022/05/11 00:42:25;;;;;;;5.30;4.43;;;;;;;;;;6220530;23;19993;-94
2022/05/11 00:45:19;;;;;;;7.20;4.55;;;;;;;;;;6200140;23;19989;-91
2022/05/11 00:47:49;;;;;;;5.03;4.25;;;;;;;;;;6207055;23;20017;-89
2022/05/11 00:50:18;;;;;;;4.93;4.13;;;;;;;;;;6203538;23;20459;-91
2022/05/11 00:52:47;;;;;;;7.80;4.47;;;;;;;;;;6231609;23;20009;-91
2022/05/11 00:55:18;;;;;;;5.18;4.50;;;;;;;;;;6232692;23;20073;-92
2022/05/11 00:57:44;;;;;;;;;;;;;;;;;;6206776;23;20068;-93
2022/05/11 01:00:11;;;;;;;4.88;3.92;;;;;;;;;;6205004;23;19900;-92
2022/05/11 01:02:46;;;;;;;5.25;3.92;;;;;;;;;;6218827;23;20005;-91
2022/05/11 01:05:22;;;;;;;5.05;4.30;;;;;;;;;;6192612;23;20013;-92
2022/05/11 01:07:49;;;;;;;5.82;4.55;;;;;;;;;;6187722;23;20009;-92
2022/05/11 01:10:17;;;;;;;6.07;4.45;;;;;;;;;;6186352;23;20025;-93
2022/05/11 01:12:46;;;;;;;6.07;4.30;;;;;;;;;;6186371;23;19997;-92
2022/05/11 01:15:14;;;;;;;6.03;4.22;;;;;;;;;;6187462;23;19997;-90
2022/05/11 01:17:40;;;;;;;6.05;4.57;;;;;;;;;;6226764;23;20053;-90
2022/05/11 01:20:27;;;;;;;13.77;4.50;;;;;;;;;;6208857;23;20032;-90
2022/05/11 01:22:53;;;;;;;6.20;4.63;;;;;;;;;;6232104;23;20001;-91
2022/05/11 01:25:25;;;;;;;6.22;4.75;;;;;;;;;;6235345;23;20040;-91
2022/05/11 01:28:11;;;;;;;6.35;4.60;;;;;;;;;;6209686;23;20025;-91
2022/05/11 01:30:41;;;;;;;5.53;4.40;;;;;;;;;;6210947;23;20025;-90
2022/05/11 01:33:32;;;;;;;7.93;4.53;;;;;;;;;;6235492;23;20020;-92
2022/05/11 01:36:19;;;;;;;7.10;4.75;;;;;;;;;;6234077;23;19994;-91
2022/05/11 01:38:47;;;;;;;6.05;4.25;;;;;;;;;;6206890;23;20035;-91
2022/05/11 01:41:25;;;;;;;6.68;4.95;;;;;;;;;;6234240;23;19997;-92
2022/05/11 01:43:52;;;;;;;9.82;4.43;;;;;;;;;;6233748;23;20001;-91
2022/05/11 01:46:23;;;;;;;6.10;4.90;;;;;;;;;;6210509;23;20036;-91
2022/05/11 01:48:53;;;;;;;5.75;4.63;;;;;;;;;;6210039;23;19993;-91
2022/05/11 01:51:31;;;;;;;5.38;4.38;;;;;;;;;;6235064;23;20063;-91
2022/05/11 01:53:57;;;;;;;5.40;4.70;;;;;;;;;;6211037;23;20005;-91
2022/05/11 01:56:28;;;;;;;8.10;4.65;;;;;;;;;;6211337;23;20415;-91
2022/05/11 02:01:34;;;;;;;6.05;4.00;;;;;;;;;;6210719;23;20105;-90
2022/05/11 02:07:49;;;;;;;5.13;4.40;;;;;;;;;;6210319;23;20043;-91
2022/05/11 02:09:57;;;;;;;5.20;4.53;;;;;;;;;;6211710;23;20089;-91
2022/05/11 02:12:22;;;;;;;6.97;4.50;;;;;;;;;;6210756;23;20015;-90
2022/05/11 02:14:48;;;;;;;6.95;4.50;;;;;;;;;;6211261;23;20012;-91
2022/05/11 02:17:15;;;;;;;5.22;4.28;;;;;;;;;;6208933;23;20460;-91
2022/05/11 02:19:46;;;;;;;5.40;4.53;;;;;;;;;;6229152;23;20080;-92
2022/05/11 02:22:14;;;;;;;7.70;4.57;;;;;;;;;;6199458;23;20012;-90
2022/05/11 02:24:41;;;;;;;6.82;4.85;;;;;;;;;;6203128;23;20005;-91
2022/05/11 02:27:07;;;;;;;10.55;4.75;;;;;;;;;;6230432;23;20009;-91
2022/05/11 02:29:43;;;;;;;9.43;4.68;;;;;;;;;;6206678;23;20004;-92
2022/05/11 02:32:15;;;;;;;5.55;4.05;;;;;;;;;;6229240;23;20005;-92
2022/05/11 02:37:34;;;;;;;6.55;4.80;;;;;;;;;;6203603;23;20019;-91
2022/05/11 02:40:00;;;;;;;;;;;;;;;;;;6225487;23;20015;-92
2022/05/11 02:42:30;;;;;;;7.13;4.30;;;;;;;;;;6202694;23;19916;-91
2022/05/11 02:44:59;;;;;;;5.97;4.20;;;;;;;;;;6226289;23;20001;-91
2022/05/11 02:47:28;;;;;;;4.95;4.28;;;;;;;;;;6225634;23;20020;-91
2022/05/11 02:50:03;;;;;;;5.40;4.38;;;;;;;;;;6225648;23;20007;-91
2022/05/11 02:52:29;;;;;;;5.13;4.38;;;;;;;;;;6223740;23;20008;-92
2022/05/11 02:54:55;;;;;;;8.20;4.88;;;;;;;;;;6226364;23;20020;-91
2022/05/11 02:57:25;;;;;;;5.72;4.82;;;;;;;;;;6200770;23;20332;-91
2022/05/11 02:59:53;;;;;;;7.53;4.30;;;;;;;;;;6199968;23;20056;-92
2022/05/11 03:02:20;;;;;;;6.20;4.25;;;;;;;;;;6228745;23;20036;-92
2022/05/11 03:04:52;;;;;;;6.22;4.75;;;;;;;;;;6201794;23;20001;-91
2022/05/11 03:07:26;;;;;;;5.35;4.63;;;;;;;;;;6221170;23;19997;-91
2022/05/11 03:09:58;;;;;;;8.27;5.00;;;;;;;;;;6197722;23;20068;-92
2022/05/11 03:12:27;;;;;;;8.20;5.07;;;;;;;;;;6196469;23;20079;-91
2022/05/11 03:15:00;;;;;;;6.07;4.72;;;;;;;;;;6221616;23;20028;-92
2022/05/11 03:17:27;;;;;;;5.57;4.43;;;;;;;;;;6206045;23;20001;-92
2022/05/11 03:19:56;;;;;;;5.25;4.70;;;;;;;;;;6234060;23;20024;-91
2022/05/11 03:22:24;;;;;;;5.70;4.43;;;;;;;;;;6208380;23;20021;-91
2022/05/11 03:24:53;;;;;;;6.55;4.43;;;;;;;;;;6201980;23;20005;-91
2022/05/11 03:27:19;;;;;;;5.97;4.25;;;;;;;;;;6219517;23;20009;-91
2022/05/11 03:29:52;;;;;;;5.65;5.05;;;;;;;;;;6213904;23;20012;-91
2022/05/11 03:35:07;;;;;;;7.97;5.03;;;;;;;;;;6189792;23;20103;-92
2022/05/11 03:37:37;;;;;;;5.82;4.72;;;;;;;;;;6189091;23;20020;-89
2022/05/11 03:40:05;;;;;;;6.28;4.72;;;;;;;;;;6213070;23;20028;-91
2022/05/11 03:42:35;;;;;;;8.27;4.65;;;;;;;;;;6216269;23;20008;-91
2022/05/11 03:45:08;;;;;;;7.20;4.40;;;;;;;;;;6216739;23;20436;-91
2022/05/11 03:47:37;;;;;;;10.20;5.18;;;;;;;;;;6216667;23;20060;-92
2022/05/11 03:50:04;;;;;;;6.03;4.93;;;;;;;;;;6211053;23;19997;-91
2022/05/11 03:52:33;;;;;;;6.95;4.13;;;;;;;;;;6236195;23;19993;-91
2022/05/11 03:55:02;;;;;;;5.50;4.70;;;;;;;;;;6237050;23;20028;-90
2022/05/11 03:57:28;;;;;;;10.00;4.63;;;;;;;;;;6211799;23;19989;-91
2022/05/11 03:59:57;;;;;;;6.82;4.72;;;;;;;;;;6211495;23;19993;-91
2022/05/11 04:02:23;;;;;;;5.07;4.10;;;;;;;;;;6221822;23;20092;-92
2022/05/11 04:04:52;;;;;;;11.18;5.00;;;;;;;;;;6222600;23;20005;-90
2022/05/11 04:07:21;;;;;;;6.43;4.60;;;;;;;;;;6199896;23;20005;-89
2022/05/11 04:09:47;;;;;;;6.05;3.97;;;;;;;;;;6222169;23;20005;-90
2022/05/11 04:12:13;;;;;;;5.68;4.80;;;;;;;;;;6221434;23;20008;-90
2022/05/11 04:14:40;;;;;;;6.45;5.18;;;;;;;;;;6227109;23;20009;-91
2022/05/11 04:17:06;;;;;;;8.65;4.55;;;;;;;;;;6221432;23;20439;-91
2022/05/11 04:19:34;;;;;;;7.88;4.63;;;;;;;;;;6212594;23;20039;-90
2022/05/11 04:22:00;;;;;;;5.45;4.68;;;;;;;;;;6190261;23;20037;-92
2022/05/11 04:24:26;;;;;;;7.10;4.45;;;;;;;;;;6216189;23;20005;-90
2022/05/11 04:27:00;;;;;;;7.05;5.00;;;;;;;;;;6217837;23;20076;-92
2022/05/11 04:29:26;;;;;;;6.10;4.97;;;;;;;;;;6199621;23;19997;-91
2022/05/11 04:32:03;;;;;;;8.38;5.03;;;;;;;;;;6221544;23;20009;-91
2022/05/11 04:34:29;;;;;;;5.43;4.43;;;;;;;;;;6198258;23;20005;-92
2022/05/11 04:36:56;;;;;;;7.05;4.60;;;;;;;;;;6221282;23;20040;-92
2022/05/11 04:39:25;;;;;;;6.78;4.80;;;;;;;;;;6196368;23;20001;-92
2022/05/11 04:42:04;;;;;;;7.72;4.70;;;;;;;;;;6199487;23;20067;-93
2022/05/11 04:44:30;;;;;;;5.30;4.40;;;;;;;;;;6214582;23;20001;-93
2022/05/11 04:46:56;;;;;;;8.02;4.60;;;;;;;;;;6213223;23;20023;-93
2022/05/11 04:49:25;;;;;;;7.85;4.05;;;;;;;;;;6188434;23;20117;-92
2022/05/11 04:51:52;;;;;;;9.77;4.50;;;;;;;;;;6189738;23;20052;-94
2022/05/11 04:54:19;;;;;;;5.90;4.78;;;;;;;;;;6225533;23;20035;-93
2022/05/11 04:56:45;;;;;;;5.78;4.18;;;;;;;;;;6202490;23;20024;-93
2022/05/11 04:59:13;;;;;;;6.50;4.85;;;;;;;;;;6224776;23;19999;-94
2022/05/11 05:01:40;;;;;;;6.85;4.82;;;;;;;;;;6196617;23;20009;-93
2022/05/11 05:04:08;;;;;;;6.13;5.00;;;;;;;;;;6212217;23;20008;-94
2022/05/11 05:06:34;;;;;;;5.13;4.50;;;;;;;;;;6236142;23;20005;-94
2022/05/11 05:09:01;;;;;;;7.88;4.78;;;;;;;;;;6236160;23;20025;-94
2022/05/11 05:11:30;;;;;;;6.25;5.15;;;;;;;;;;6235512;23;20001;-94
2022/05/11 05:13:56;;;;;;;7.25;4.65;;;;;;;;;;6236561;23;20028;-94
2022/05/11 05:16:22;;;;;;;7.63;4.57;;;;;;;;;;6203552;23;20099;-94
2022/05/11 05:18:51;;;;;;;6.53;4.97;;;;;;;;;;6209600;23;20013;-92
2022/05/11 05:21:20;;;;;;;5.45;4.60;;;;;;;;;;6235427;23;20009;-94
2022/05/11 05:23:46;;;;;;;8.20;4.80;;;;;;;;;;6208181;23;20005;-94
2022/05/11 05:26:15;;;;;;;9.45;5.22;;;;;;;;;;6234906;23;20012;-94
2022/05/11 05:31:28;;;;;;;6.00;4.82;;;;;;;;;;6196254;23;20486;-93
2022/05/11 05:33:59;;;;;;;6.10;4.68;;;;;;;;;;6222548;23;20007;-93
2022/05/11 05:36:43;;;;;;;9.40;5.30;;;;;;;;;;6204417;23;20009;-94
2022/05/11 05:39:16;;;;;;;5.70;5.10;;;;;;;;;;6228733;23;20065;-94
2022/05/11 05:41:43;;;;;;;7.40;4.93;;;;;;;;;;6228816;23;20017;-92
2022/05/11 05:44:09;;;;;;;7.15;4.43;;;;;;;;;;6213591;23;20336;-92
2022/05/11 05:46:36;;;;;;;5.43;4.85;;;;;;;;;;6224947;23;20124;-94
2022/05/11 05:49:03;;;;;;;6.43;4.95;;;;;;;;;;6236279;23;20001;-93
2022/05/11 05:51:29;;;;;;;6.68;4.80;;;;;;;;;;6212308;23;20013;-95
2022/05/11 05:53:55;;;;;;;6.00;5.05;;;;;;;;;;6237175;23;20021;-93
2022/05/11 05:56:21;;;;;;;6.93;4.60;;;;;;;;;;6212564;23;19989;-95
2022/05/11 05:58:47;;;;;;;10.63;5.35;;;;;;;;;;6236817;23;19997;-94
2022/05/11 06:01:16;;;;;;;8.73;5.10;;;;;;;;;;6212103;23;20065;-93
2022/05/11 06:03:44;;;;;;;7.75;5.43;;;;;;;;;;6212737;23;19993;-93
2022/05/11 06:06:12;;;;;;;6.13;5.40;;;;;;;;;;6212557;23;19997;-93
2022/05/11 06:08:38;;;;;;;5.60;4.88;;;;;;;;;;6212494;23;19981;-92
2022/05/11 06:11:05;;;;;;;6.32;5.47;;;;;;;;;;6212312;23;19997;-93
2022/05/11 06:13:32;;;;;;;8.43;4.95;;;;;;;;;;6236800;23;20008;-95
2022/05/11 06:15:58;;;;;;;6.40;5.20;;;;;;;;;;6212540;23;19997;-94
2022/05/11 06:18:25;;;;;;;7.30;5.15;;;;;;;;;;6236857;23;19997;-93
2022/05/11 06:20:51;;;;;;;6.10;4.95;;;;;;;;;;6236605;23;20001;-93
2022/05/11 06:23:18;;;;;;;10.13;5.35;;;;;;;;;;6212498;23;19989;-94
2022/05/11 06:25:44;;;;;;;5.25;4.40;;;;;;;;;;6236360;23;20016;-94
2022/05/11 06:28:13;;;;;;;7.72;5.35;;;;;;;;;;6212089;23;20000;-94
2022/05/11 06:30:39;;;;;;;6.68;5.13;;;;;;;;;;6212067;23;19989;-94
2022/05/11 06:33:05;;;;;;;6.03;5.00;;;;;;;;;;6236795;23;20036;-95
2022/05/11 06:35:31;;;;;;;5.95;4.82;;;;;;;;;;6206777;23;19997;-91
2022/05/11 06:38:02;;;;;;;6.65;4.85;;;;;;;;;;6233205;23;19993;-94
2022/05/11 06:40:28;;;;;;;7.32;5.25;;;;;;;;;;6236562;23;20061;-94
2022/05/11 06:42:54;;;;;;;6.90;5.13;;;;;;;;;;6236506;23;20021;-94
2022/05/11 06:45:20;;;;;;;5.80;4.50;;;;;;;;;;6235190;23;19996;-93
2022/05/11 06:47:46;;;;;;;5.45;4.68;;;;;;;;;;6212178;23;20198;-92
2022/05/11 06:50:13;;;;;;;6.70;5.13;;;;;;;;;;6236504;23;20012;-94
2022/05/11 06:52:39;;;;;;;6.38;4.65;;;;;;;;;;6205952;23;20008;-93
2022/05/11 07:00:36;;;;;;;10.88;5.20;;;;;;;;;;6212034;23;20024;-92
2022/05/11 07:03:02;;;;;;;5.65;4.15;;;;;;;;;;6236189;23;20057;-93
2022/05/11 07:05:32;;;;;;;9.88;4.97;;;;;;;;;;6209901;23;20020;-91
2022/05/11 07:08:02;;;;;;;5.40;4.38;;;;;;;;;;6236471;23;19989;-92
2022/05/11 07:10:28;;;;;;;6.05;4.47;;;;;;;;;;6211567;23;19997;-92
2022/05/11 07:12:56;;;;;;;6.05;4.40;;;;;;;;;;6215626;23;20001;-91
2022/05/11 07:15:22;;;;;;;4.68;3.88;;;;;;;;;;6215162;23;20024;-93
2022/05/11 07:17:55;;;;;;;10.65;5.00;;;;;;;;;;6215688;23;20007;-91
2022/05/11 07:20:28;;;;;;;6.72;4.13;;;;;;;;;;6200929;23;20029;-91
2022/05/11 07:22:54;;;;;;;8.18;4.47;;;;;;;;;;6188625;23;20080;-90
2022/05/11 07:25:21;;;;;;;5.47;4.68;;;;;;;;;;6186308;23;20407;-90
2022/05/11 07:27:48;;;;;;;7.97;4.35;;;;;;;;;;6209452;23;20042;-91
2022/05/11 07:30:16;;;;;;;7.65;4.00;;;;;;;;;;6188163;23;20001;-92
2022/05/11 07:32:42;;;;;;;6.50;4.07;;;;;;;;;;6210525;23;20016;-94
2022/05/11 07:35:08;;;;;;;5.13;4.18;;;;;;;;;;6188440;23;20383;-92
2022/05/11 07:37:46;;;;;;;5.28;3.63;;;;;;;;;;6213015;23;20005;-93
2022/05/11 07:40:12;;;;;;;4.85;4.10;;;;;;;;;;6187517;23;19997;-92
2022/05/11 07:42:49;;;;;;;7.38;4.15;;;;;;;;;;6187505;23;20025;-92
2022/05/11 07:45:15;;;;;;;5.80;3.90;;;;;;;;;;6210363;23;20060;-91
2022/05/11 07:47:44;;;;;;;6.22;4.57;;;;;;;;;;6187272;23;20003;-91
2022/05/11 07:50:21;;;;;;;6.07;4.15;;;;;;;;;;6186084;23;20009;-90
2022/05/11 07:52:56;;;;;;;6.07;3.80;;;;;;;;;;6206700;23;20013;-90
2022/05/11 07:55:28;;;;;;;8.23;3.70;;;;;;;;;;6209059;23;20017;-89
2022/05/11 08:00:58;;;;;;;;;;;;;;;;;;6186533;23;20064;-88
2022/05/11 08:07:13;;;;;;;;;;;;;;;;;;;;;
2022/05/11 08:10:14;;;;;;;5.45;3.58;;;;;;;;;;6183127;23;20064;-89
2022/05/11 08:15:54;;;;;;;5.45;3.90;;;;;;;;;;6185804;23;20063;-89
2022/05/11 08:18:28;;;;;;;7.78;3.60;;;;;;;;;;6209346;23;20032;-92
2022/05/11 08:20:54;;;;;;;7.97;3.47;;;;;;;;;;6210244;23;20001;-91
2022/05/11 08:23:23;;;;;;;7.85;3.88;;;;;;;;;;6210360;23;20013;-90
2022/05/11 08:25:52;;;;;;;5.35;3.90;;;;;;;;;;6186961;23;20009;-91
2022/05/11 08:28:19;;;;;;;6.20;3.42;;;;;;;;;;6216094;23;20009;-90
2022/05/11 08:33:32;;;;;;;9.18;3.70;;;;;;;;;;6189560;23;20044;-90
2022/05/11 08:36:06;;;;;;;7.00;3.97;;;;;;;;;;6214728;23;20012;-91
2022/05/11 08:38:38;;;;;;;7.10;3.58;;;;;;;;;;6190676;23;20081;-91
2022/05/11 08:41:11;;;;;;;5.10;3.90;;;;;;;;;;6191460;23;19997;-91
2022/05/11 08:43:38;;;;;;;5.05;3.35;;;;;;;;;;6216854;23;20005;-90
2022/05/11 08:48:49;;;;;;;6.07;3.60;;;;;;;;;;6146929;23;20031;-90
2022/05/11 08:51:29;;;;;;;7.63;3.33;;;;;;;;;;6213335;23;19993;-91
2022/05/11 08:54:07;;;;;;;4.97;3.80;;;;;;;;;;6212740;23;20012;-92
2022/05/11 08:56:39;;;;;;;4.57;3.33;;;;;;;;;;6212069;23;20033;-91
2022/05/11 08:59:11;;;;;;;4.60;3.25;;;;;;;;;;6211893;23;20038;-91
2022/05/11 09:01:54;;;;;;;4.65;3.30;;;;;;;;;;6236956;23;20016;-92
2022/05/11 09:04:22;;;;;;;5.15;3.00;;;;;;;;;;6237203;23;19990;-92
2022/05/11 09:06:51;;;;;;;11.00;3.40;;;;;;;;;;6212876;23;20005;-92
2022/05/11 09:09:17;;;;;;;6.55;3.58;;;;;;;;;;6212450;23;20001;-92
2022/05/11 09:11:47;;;;;;;5.93;3.15;;;;;;;;;;6213304;23;19993;-92
2022/05/11 09:14:14;;;;;;;11.52;3.50;;;;;;;;;;6238270;23;19993;-92
2022/05/11 09:16:45;;;;;;;3.30;3.00;;;;;;;;;;6213820;23;19994;-91
2022/05/11 09:19:13;;;;;;;5.35;3.67;;;;;;;;;;6213970;23;20046;-91
2022/05/11 09:21:41;;;;;;;5.03;2.80;;;;;;;;;;6213500;23;20032;-91
2022/05/11 09:24:08;;;;;;;4.68;3.13;;;;;;;;;;6213183;23;20025;-91
2022/05/11 09:26:36;;;;;;;5.22;3.15;;;;;;;;;;6211552;23;20028;-91
2022/05/11 09:29:13;;;;;;;7.72;2.95;;;;;;;;;;6238033;23;19997;-91
2022/05/11 09:31:39;;;;;;;7.35;3.17;;;;;;;;;;6238050;23;19994;-91
2022/05/11 09:34:07;;;;;;;5.13;2.65;;;;;;;;;;6214061;23;20003;-92
2022/05/11 09:36:40;;;;;;;4.68;2.90;;;;;;;;;;6238518;23;20000;-91
2022/05/11 09:39:14;;;;;;;6.05;2.90;;;;;;;;;;6238470;23;20008;-88
2022/05/11 09:41:41;;;;;;;7.13;3.30;;;;;;;;;;6238156;23;20028;-91
2022/05/11 09:44:20;;;;;;;5.55;3.17;;;;;;;;;;6214057;23;19997;-91
2022/05/11 09:46:47;;;;;;;12.55;3.10;;;;;;;;;;6214338;23;19999;-91
2022/05/11 09:49:16;;;;;;;4.07;2.80;;;;;;;;;;6238526;23;19997;-91
2022/05/11 09:51:44;;;;;;;9.23;3.10;;;;;;;;;;6214140;23;20012;-94
2022/05/11 09:54:16;;;;;;;6.50;2.92;;;;;;;;;;6239681;23;19986;-94
2022/05/11 09:56:56;;;;;;;4.30;2.75;;;;;;;;;;6238897;23;20019;-94
2022/05/11 09:59:39;;;;;;;3.17;2.70;;;;;;;;;;6238942;23;20026;-92
2022/05/11 10:02:05;;;;;;;3.33;2.85;;;;;;;;;;6238723;23;20024;-90
2022/05/11 10:04:46;;;;;;;6.70;3.80;;;;;;;;;;6214658;23;19989;-93
2022/05/11 10:07:19;;;;;;;7.50;2.78;;;;;;;;;;6238714;23;20013;-92
2022/05/11 10:09:48;;;;;;;7.13;2.65;;;;;;;;;;6237142;23;19993;-93
2022/05/11 10:12:25;;;;;;;9.00;2.90;;;;;;;;;;6213637;23;20028;-91
2022/05/11 10:23:27;;;;;;;6.53;2.95;;;;;;;;;;6212588;23;20051;-92
2022/05/11 10:25:56;;;;;;;6.80;3.22;;;;;;;;;;6211805;23;19993;-93
2022/05/11 10:29:01;;;;;;;4.43;2.38;;;;;;;;;;6236561;23;19989;-92
2022/05/11 10:31:34;;;;;;;9.70;2.70;;;;;;;;;;6180913;23;20009;-91
2022/05/11 10:34:21;;;;;;;4.57;2.22;;;;;;;;;;6182005;23;19990;-91
2022/05/11 10:36:58;;;;;;;6.70;2.28;;;;;;;;;;6203521;23;20116;-93
2022/05/11 10:39:43;;;;;;;6.13;2.10;;;;;;;;;;6238094;23;19989;-92
2022/05/11 10:42:13;;;;;;;4.82;2.45;;;;;;;;;;6213298;23;20009;-91
2022/05/11 10:44:56;;;;;;;4.90;2.45;;;;;;;;;;6213794;23;19997;-90
2022/05/11 10:47:47;;;;;;;;;;;;;;;;;;;;;
2022/05/11 10:50:32;;;;;;;5.95;2.40;;;;;;;;;;6213034;23;20001;-89
2022/05/11 10:53:14;;;;;;;13.38;2.47;;;;;;;;;;6211450;23;20013;-87
2022/05/11 10:55:58;;;;;;;5.50;2.17;;;;;;;;;;6233211;23;20108;-89
2022/05/11 10:58:45;;;;;;;6.72;2.25;;;;;;;;;;6209930;23;20334;-88
2022/05/11 11:01:13;;;;;;;5.32;2.28;;;;;;;;;;6212350;23;20005;-89
2022/05/11 11:03:58;;;;;;;5.85;3.17;;;;;;;;;;6210940;23;20096;-87
2022/05/11 11:09:22;;;;;;;4.97;2.22;;;;;;;;;;6185807;23;20092;-89
2022/05/11 11:11:48;;;;;;;8.48;2.60;;;;;;;;;;6185955;23;20066;-89
2022/05/11 11:14:24;;;;;;;5.78;2.58;;;;;;;;;;6209483;23;20020;-88
2022/05/11 11:16:53;;;;;;;7.05;2.15;;;;;;;;;;6209902;23;20339;-89
2022/05/11 11:19:19;;;;;;;4.40;1.95;;;;;;;;;;6209616;23;20060;-89
2022/05/11 11:21:45;;;;;;;4.45;2.70;;;;;;;;;;6209597;23;20005;-89
2022/05/11 11:24:17;;;;;;;4.57;1.83;;;;;;;;;;6186230;23;20077;-89
2022/05/11 11:26:50;;;;;;;4.00;2.58;;;;;;;;;;6208480;23;20001;-89
2022/05/11 11:29:18;;;;;;;4.50;2.50;;;;;;;;;;6208690;23;20001;-89
2022/05/11 11:32:04;;;;;;;6.30;2.05;;;;;;;;;;6208974;23;20005;-89
2022/05/11 11:34:31;;;;;;;2.63;2.13;;;;;;;;;;6209614;23;20059;-88
2022/05/11 11:36:57;;;;;;;3.13;2.17;;;;;;;;;;6209017;23;20081;-87
2022/05/11 11:39:42;;;;;;;9.32;2.47;;;;;;;;;;6209255;23;20101;-88
2022/05/11 11:42:08;;;;;;;5.85;2.40;;;;;;;;;;6209583;23;20017;-89
2022/05/11 11:44:39;;;;;;;4.40;2.30;;;;;;;;;;6208818;23;20001;-91
2022/05/11 11:47:36;;;;;;;6.00;2.33;;;;;;;;;;6185848;23;20005;-89
2022/05/11 11:50:27;;;;;;;5.18;2.33;;;;;;;;;;6191669;23;20009;-91
2022/05/11 11:53:11;;;;;;;14.07;2.80;;;;;;;;;;6212134;23;20003;-89
2022/05/11 11:58:50;;;;;;;4.55;2.45;;;;;;;;;;6212105;23;20057;-90
2022/05/11 12:01:37;;;;;;;14.40;2.28;;;;;;;;;;6237893;23;20060;-92
2022/05/11 12:04:07;;;;;;;10.00;2.42;;;;;;;;;;6212116;23;19993;-91
2022/05/11 12:15:42;;;;;;;7.32;2.35;;;;;;;;;;6186643;23;20020;-89
2022/05/11 12:18:31;;;;;;;4.50;2.58;;;;;;;;;;6186686;23;20419;-89
2022/05/11 12:21:00;;;;;;;7.10;2.20;;;;;;;;;;6187875;23;20133;-88
2022/05/11 12:23:39;;;;;;;4.88;2.53;;;;;;;;;;6215472;23;20005;-89
2022/05/11 12:26:09;;;;;;;8.25;2.30;;;;;;;;;;6210057;23;20317;-88
2022/05/11 12:28:44;;;;;;;4.50;2.40;;;;;;;;;;6210110;23;20080;-89
2022/05/11 12:31:43;;;;;;;5.50;2.85;;;;;;;;;;6187151;23;20101;-89
2022/05/11 12:34:15;;;;;;;4.68;2.17;;;;;;;;;;6166228;23;20025;-88
2022/05/11 12:36:53;;;;;;;5.05;2.10;;;;;;;;;;6159338;23;20240;-89
2022/05/11 12:42:29;;;;;;;6.13;1.83;;;;;;;;;;6185041;23;20137;-89
2022/05/11 12:44:58;;;;;;;3.92;2.53;;;;;;;;;;6208917;23;20013;-89
2022/05/11 12:47:25;;;;;;;8.05;2.00;;;;;;;;;;6185071;23;20005;-88
2022/05/11 12:50:03;;;;;;;6.38;2.03;;;;;;;;;;6186443;23;20075;-88
2022/05/11 12:52:29;;;;;;;5.75;2.22;;;;;;;;;;6210068;23;20020;-88
2022/05/11 12:55:03;;;;;;;3.60;1.50;;;;;;;;;;6208722;23;20005;-88
2022/05/11 12:57:41;;;;;;;6.25;2.30;;;;;;;;;;6208679;23;20099;-88
2022/05/11 13:00:28;;;;;;;1.98;1.80;;;;;;;;;;6200724;23;20037;-87
2022/05/11 13:03:13;;;;;;;2.17;1.98;;;;;;;;;;6186597;23;20005;-90
2022/05/11 13:05:41;;;;;;;4.80;2.17;;;;;;;;;;6186514;23;20013;-89
2022/05/11 13:08:14;;;;;;;5.75;2.60;;;;;;;;;;6209344;23;20348;-88
2022/05/11 13:10:50;;;;;;;4.22;2.05;;;;;;;;;;6185577;23;20067;-88
2022/05/11 13:13:25;;;;;;;8.18;1.88;;;;;;;;;;6186307;23;20001;-87
2022/05/11 13:15:52;;;;;;;4.28;1.98;;;;;;;;;;6209061;23;20328;-89
2022/05/11 13:18:27;;;;;;;3.80;1.70;;;;;;;;;;6184909;23;20009;-89
2022/05/11 13:20:54;;;;;;;4.60;1.90;;;;;;;;;;6209600;23;20033;-89
2022/05/11 13:23:27;;;;;;;4.40;2.15;;;;;;;;;;6209862;23;20002;-89
2022/05/11 13:25:57;;;;;;;2.55;2.03;;;;;;;;;;6209844;23;20001;-88
2022/05/11 13:28:30;;;;;;;6.35;2.33;;;;;;;;;;6209288;23;20011;-86
2022/05/11 13:30:59;;;;;;;4.43;1.88;;;;;;;;;;6210038;23;20012;-88
2022/05/11 13:33:40;;;;;;;12.32;2.35;;;;;;;;;;6210389;23;20008;-89
2022/05/11 13:36:09;;;;;;;4.57;1.88;;;;;;;;;;6186804;23;20005;-89
2022/05/11 13:38:38;;;;;;;5.90;2.78;;;;;;;;;;6210198;23;20005;-90
2022/05/11 13:41:06;;;;;;;3.53;1.80;;;;;;;;;;6186977;23;20447;-88
2022/05/11 13:43:38;;;;;;;7.97;2.05;;;;;;;;;;6210649;23;20027;-88
2022/05/11 13:46:06;;;;;;;7.07;2.15;;;;;;;;;;6186521;23;20080;-91
2022/05/11 13:48:34;;;;;;;3.65;2.17;;;;;;;;;;6186248;23;20032;-89
2022/05/11 13:51:18;;;;;;;8.10;2.30;;;;;;;;;;6210309;23;20033;-89
2022/05/11 13:53:49;;;;;;;10.00;2.03;;;;;;;;;;6210322;23;20005;-90
2022/05/11 13:56:17;;;;;;;11.73;2.30;;;;;;;;;;6186877;23;20080;-89
2022/05/11 13:58:51;;;;;;;4.53;2.33;;;;;;;;;;6210266;23;20017;-91
2022/05/11 14:01:21;;;;;;;3.22;1.77;;;;;;;;;;6186796;23;20009;-89
2022/05/11 14:03:56;;;;;;;3.78;2.25;;;;;;;;;;6209866;23;20032;-89
2022/05/11 14:06:32;;;;;;;6.53;1.92;;;;;;;;;;6209922;23;20009;-90
2022/05/11 14:08:59;;;;;;;3.55;1.80;;;;;;;;;;6186466;23;20016;-88
2022/05/11 14:11:25;;;;;;;9.95;2.38;;;;;;;;;;6185927;23;20420;-88
2022/05/11 14:13:51;;;;;;;6.00;2.60;;;;;;;;;;6186065;23;20432;-90
2022/05/11 14:16:23;;;;;;;6.20;2.15;;;;;;;;;;6209752;23;20004;-89
2022/05/11 14:18:50;;;;;;;2.03;1.83;;;;;;;;;;6186811;23;20342;-89
2022/05/11 14:21:16;;;;;;;7.35;2.47;;;;;;;;;;6209269;23;20011;-89
2022/05/11 14:23:43;;;;;;;3.83;2.20;;;;;;;;;;6209617;23;20435;-90
2022/05/11 14:26:09;;;;;;;3.60;2.33;;;;;;;;;;6185955;23;20009;-90
2022/05/11 14:28:36;;;;;;;4.50;2.08;;;;;;;;;;6215912;23;20032;-90
2022/05/11 14:31:02;;;;;;;4.97;2.47;;;;;;;;;;6186042;23;20427;-89
2022/05/11 14:33:28;;;;;;;5.70;2.17;;;;;;;;;;6209608;23;20088;-89
2022/05/11 14:35:55;;;;;;;6.55;2.30;;;;;;;;;;6209117;23;20017;-89
2022/05/11 14:38:22;;;;;;;4.85;2.30;;;;;;;;;;6185796;23;20001;-88
2022/05/11 14:40:48;;;;;;;2.88;2.17;;;;;;;;;;6209286;23;20415;-89
2022/05/11 14:43:17;;;;;;;2.20;1.90;;;;;;;;;;6209369;23;20008;-89
2022/05/11 14:45:44;;;;;;;4.45;2.38;;;;;;;;;;6209423;23;19998;-89
2022/05/11 14:48:13;;;;;;;3.40;2.30;;;;;;;;;;6208990;23;20007;-89
2022/05/11 14:50:39;;;;;;;7.82;3.13;;;;;;;;;;6209842;23;20071;-89
2022/05/11 14:53:05;;;;;;;10.05;2.88;;;;;;;;;;6186234;23;20374;-88
2022/05/11 14:55:31;;;;;;;2.78;2.05;;;;;;;;;;6186241;23;20064;-87
2022/05/11 15:03:27;;;;;;;4.68;2.22;;;;;;;;;;6186050;23;20016;-89
2022/05/11 15:05:54;;;;;;;3.97;1.75;;;;;;;;;;6185959;23;20011;-89
2022/05/11 15:08:20;;;;;;;5.28;2.33;;;;;;;;;;6209436;23;20001;-88
2022/05/11 15:10:46;;;;;;;6.47;2.40;;;;;;;;;;6186116;23;20001;-88
2022/05/11 15:13:31;;;;;;;7.18;2.63;;;;;;;;;;6209549;23;20084;-87
2022/05/11 15:15:57;;;;;;;4.07;2.50;;;;;;;;;;6186192;23;20008;-88
2022/05/11 15:18:24;;;;;;;8.77;2.85;;;;;;;;;;6185871;23;20016;-87
2022/05/11 15:20:50;;;;;;;6.80;2.53;;;;;;;;;;6184339;23;20009;-88
2022/05/11 15:23:17;;;;;;;9.02;2.38;;;;;;;;;;6208118;23;20427;-89
2022/05/11 15:25:43;;;;;;;7.60;2.50;;;;;;;;;;6207258;23;20102;-90
2022/05/11 15:28:10;;;;;;;2.70;2.13;;;;;;;;;;6183923;23;20431;-90
2022/05/11 15:30:37;;;;;;;6.55;2.20;;;;;;;;;;6208340;23;20027;-88
2022/05/11 15:33:03;;;;;;;6.35;2.08;;;;;;;;;;6218116;23;20001;-89
2022/05/11 15:35:31;;;;;;;2.65;2.40;;;;;;;;;;6216526;23;20001;-87
2022/05/11 15:37:59;;;;;;;6.45;2.35;;;;;;;;;;6222659;23;20001;-88
2022/05/11 15:40:28;;;;;;;7.05;2.47;;;;;;;;;;6187595;23;20005;-88
2022/05/11 15:42:56;;;;;;;2.67;2.13;;;;;;;;;;6185855;23;19997;-88
2022/05/11 15:45:23;;;;;;;2.80;1.90;;;;;;;;;;6186062;23;20016;-89
2022/05/11 15:47:49;;;;;;;9.55;2.00;;;;;;;;;;6185709;23;20140;-89
2022/05/11 15:50:15;;;;;;;8.15;2.33;;;;;;;;;;6209102;23;20005;-89
2022/05/11 15:52:53;;;;;;;7.00;2.33;;;;;;;;;;6209405;23;20009;-89
2022/05/11 15:55:21;;;;;;;8.90;2.05;;;;;;;;;;6185435;23;20084;-89
2022/05/11 15:57:47;;;;;;;6.28;2.28;;;;;;;;;;6208928;23;20013;-89
2022/05/11 16:00:15;;;;;;;9.52;2.50;;;;;;;;;;6209404;23;20092;-89
2022/05/11 16:02:42;;;;;;;6.10;2.38;;;;;;;;;;6184649;23;20005;-87
2022/05/11 16:05:09;;;;;;;8.40;2.28;;;;;;;;;;6184694;23;19996;-87
2022/05/11 16:07:38;;;;;;;4.32;2.20;;;;;;;;;;6208236;23;20083;-85
2022/05/11 16:10:05;;;;;;;7.60;2.90;;;;;;;;;;6192778;23;20534;-85
2022/05/11 16:12:31;;;;;;;7.38;1.92;;;;;;;;;;6201448;23;20005;-84
2022/05/11 16:14:58;;;;;;;36.72;32.95;;;;;;;;;;6194453;23;20005;-85